Time;durP1;ratioP1;P1;durP2;ratioP2;P2;SDS_P1;SDS_P2;PMS_P1;PMS_P2;Temp;Humidity;BMP_temperature;BMP_pressure;BME280_temperature;BME280_humidity;BME280_pressure;Samples;Min_cycle;Max_cycle;Signal;HPM_P1;HPM_P2
2023/11/24 00:02:13;;;;;;;3.42;3.20;;;5.10;99.90;;;;;;5073291;28;20221;-81
2023/11/24 00:04:40;;;;;;;3.25;3.05;;;5.10;99.90;;;;;;5076350;28;20272;-81
2023/11/24 00:07:08;;;;;;;3.33;3.10;;;5.10;99.90;;;;;;5071920;28;20268;-81
2023/11/24 00:09:35;;;;;;;3.35;3.15;;;5.00;99.90;;;;;;5077234;28;20259;-82
2023/11/24 00:12:02;;;;;;;3.40;3.20;;;5.00;99.90;;;;;;5077937;28;20199;-83
2023/11/24 00:14:31;;;;;;;5.18;3.63;;;5.00;99.90;;;;;;5078336;28;20247;-83
2023/11/24 00:16:58;;;;;;;3.55;2.92;;;4.90;99.90;;;;;;5079242;28;20236;-84
2023/11/24 00:19:25;;;;;;;3.28;2.97;;;4.90;99.90;;;;;;5076614;28;21028;-82
2023/11/24 00:21:52;;;;;;;3.50;3.30;;;4.90;99.90;;;;;;5077923;28;20222;-84
2023/11/24 00:24:19;;;;;;;3.80;3.50;;;4.90;99.90;;;;;;5073225;28;20271;-85
2023/11/24 00:26:46;;;;;;;3.35;3.15;;;4.80;99.90;;;;;;5074421;28;20277;-82
2023/11/24 00:29:13;;;;;;;3.25;3.05;;;4.80;99.90;;;;;;5074992;28;20252;-81
2023/11/24 00:31:41;;;;;;;3.58;3.38;;;4.80;99.90;;;;;;5076645;28;20214;-83
2023/11/24 00:34:08;;;;;;;3.40;3.20;;;4.80;99.90;;;;;;5073474;28;20291;-85
2023/11/24 00:36:36;;;;;;;2.85;2.67;;;4.80;99.90;;;;;;5073485;28;20218;-81
2023/11/24 00:39:04;;;;;;;3.40;3.10;;;4.90;99.90;;;;;;5072716;28;20942;-83
2023/11/24 00:41:32;;;;;;;3.00;2.80;;;4.90;99.90;;;;;;5072180;28;20213;-80
2023/11/24 00:44:01;;;;;;;3.30;3.00;;;5.00;99.90;;;;;;5069634;28;20232;-80
2023/11/24 00:46:29;;;;;;;3.03;2.83;;;5.00;99.90;;;;;;5071717;28;20218;-84
2023/11/24 00:48:57;;;;;;;3.55;3.25;;;5.00;99.90;;;;;;5074263;28;20197;-83
2023/11/24 00:51:25;;;;;;;3.30;3.10;;;5.00;99.90;;;;;;5070800;28;20214;-83
2023/11/24 00:53:52;;;;;;;3.53;3.33;;;5.10;99.90;;;;;;5072720;28;20776;-83
2023/11/24 00:56:19;;;;;;;3.50;3.30;;;5.10;99.90;;;;;;5071544;28;20445;-83
2023/11/24 00:58:46;;;;;;;4.05;3.35;;;5.10;99.90;;;;;;5070973;28;20224;-84
2023/11/24 01:01:13;;;;;;;3.40;3.20;;;5.10;99.90;;;;;;5069808;28;20267;-81
2023/11/24 01:03:40;;;;;;;3.30;3.10;;;5.00;99.90;;;;;;5074680;28;20218;-84
2023/11/24 01:06:10;;;;;;;3.47;3.17;;;5.00;99.90;;;;;;5073770;28;20229;-82
2023/11/24 01:08:36;;;;;;;3.75;3.45;;;4.90;99.90;;;;;;5070308;28;20203;-82
2023/11/24 01:11:03;;;;;;;3.42;3.20;;;4.80;99.90;;;;;;5070435;28;20298;-82
2023/11/24 01:13:32;;;;;;;3.45;3.25;;;4.70;99.90;;;;;;5069634;28;20222;-84
2023/11/24 01:15:59;;;;;;;3.53;3.33;;;4.70;99.90;;;;;;5070042;28;20826;-83
2023/11/24 01:18:27;;;;;;;3.80;3.50;;;4.70;99.90;;;;;;5070859;28;20203;-82
2023/11/24 01:20:54;;;;;;;3.22;3.03;;;4.70;99.90;;;;;;5073056;28;20245;-84
2023/11/24 01:23:22;;;;;;;3.63;3.42;;;4.70;99.90;;;;;;5072540;28;20230;-84
2023/11/24 01:25:49;;;;;;;3.40;3.20;;;4.70;99.90;;;;;;5070243;28;20800;-82
2023/11/24 01:28:16;;;;;;;3.50;3.30;;;4.70;99.90;;;;;;5070795;28;20617;-82
2023/11/24 01:30:43;;;;;;;3.67;3.42;;;4.60;99.90;;;;;;5070167;28;20226;-83
2023/11/24 01:33:10;;;;;;;3.55;3.25;;;4.60;99.90;;;;;;5069979;28;20222;-85
2023/11/24 01:35:37;;;;;;;3.40;3.20;;;4.70;99.90;;;;;;5067592;28;20214;-86
2023/11/24 01:38:04;;;;;;;4.80;3.58;;;4.60;99.90;;;;;;5072634;28;20206;-86
2023/11/24 01:40:34;;;;;;;3.28;3.08;;;4.60;99.90;;;;;;5071158;28;20244;-82
2023/11/24 01:43:01;;;;;;;3.40;3.20;;;4.50;99.90;;;;;;5071932;28;20206;-84
2023/11/24 01:45:28;;;;;;;3.28;3.08;;;4.50;99.90;;;;;;5068926;28;20297;-83
2023/11/24 01:47:55;;;;;;;3.97;3.67;;;4.40;99.90;;;;;;5072015;28;20813;-87
2023/11/24 01:50:22;;;;;;;3.38;3.17;;;4.40;99.90;;;;;;5074060;28;20275;-82
2023/11/24 01:52:50;;;;;;;3.25;3.05;;;4.40;99.90;;;;;;5065352;28;20277;-82
2023/11/24 01:55:17;;;;;;;3.50;3.30;;;4.40;99.90;;;;;;5067449;28;20230;-80
2023/11/24 01:57:49;;;;;;;3.22;3.03;;;4.40;99.90;;;;;;5069425;28;20194;-83
2023/11/24 02:00:18;;;;;;;3.47;3.20;;;4.40;99.90;;;;;;5073026;28;20218;-82
2023/11/24 02:02:45;;;;;;;3.40;3.20;;;4.40;99.90;;;;;;5071343;28;20883;-88
2023/11/24 02:05:12;;;;;;;3.47;3.25;;;4.40;99.90;;;;;;5068429;28;20241;-82
2023/11/24 02:07:41;;;;;;;3.13;2.92;;;4.40;99.90;;;;;;5071593;28;20228;-82
2023/11/24 02:10:10;;;;;;;3.28;3.08;;;4.30;99.90;;;;;;5070841;28;20275;-83
2023/11/24 02:12:37;;;;;;;3.28;3.08;;;4.30;99.90;;;;;;5071462;28;20221;-81
2023/11/24 02:15:08;;;;;;;3.42;3.13;;;4.20;99.90;;;;;;5073889;28;20226;-84
2023/11/24 02:17:36;;;;;;;3.60;3.30;;;4.20;99.90;;;;;;5070635;28;20284;-88
2023/11/24 02:20:08;;;;;;;3.25;3.05;;;4.30;99.90;;;;;;5072792;28;20244;-83
2023/11/24 02:22:41;;;;;;;3.58;3.30;;;4.20;99.90;;;;;;5068612;28;20210;-88
2023/11/24 02:25:09;;;;;;;3.17;2.97;;;4.30;99.90;;;;;;5069400;28;20229;-82
2023/11/24 02:27:36;;;;;;;3.60;3.33;;;4.30;99.90;;;;;;5065872;28;20241;-82
2023/11/24 02:30:05;;;;;;;3.60;3.30;;;4.30;99.90;;;;;;5070028;28;20247;-83
2023/11/24 02:32:33;;;;;;;3.50;3.30;;;4.20;99.90;;;;;;5068972;28;20214;-84
2023/11/24 02:35:01;;;;;;;2.88;2.78;;;4.20;99.90;;;;;;5070395;28;20586;-84
2023/11/24 02:37:28;;;;;;;3.55;3.35;;;4.30;99.90;;;;;;5068683;28;20268;-83
2023/11/24 02:39:56;;;;;;;2.90;2.70;;;4.20;99.90;;;;;;5070903;28;20221;-88
2023/11/24 02:42:24;;;;;;;3.00;2.80;;;4.20;99.90;;;;;;5072448;28;20206;-80
2023/11/24 02:44:51;;;;;;;3.40;3.20;;;4.10;99.90;;;;;;5072113;28;20234;-79
2023/11/24 02:47:18;;;;;;;3.50;3.20;;;4.10;99.90;;;;;;5077903;28;20312;-83
2023/11/24 02:49:45;;;;;;;4.93;3.20;;;4.10;99.90;;;;;;5074479;28;20301;-81
2023/11/24 02:52:12;;;;;;;3.55;3.25;;;4.10;99.90;;;;;;5073493;28;20230;-81
2023/11/24 02:54:39;;;;;;;3.72;3.45;;;4.00;99.90;;;;;;5072468;28;20222;-82
2023/11/24 02:57:07;;;;;;;3.22;3.03;;;4.00;99.90;;;;;;5074092;28;20605;-82
2023/11/24 02:59:34;;;;;;;3.40;3.20;;;4.00;99.90;;;;;;5075625;28;20190;-81
2023/11/24 03:02:01;;;;;;;3.10;2.90;;;3.90;99.90;;;;;;5072851;28;20195;-88
2023/11/24 03:04:28;;;;;;;3.03;2.85;;;3.90;99.90;;;;;;5073784;28;20218;-82
2023/11/24 03:06:55;;;;;;;3.55;3.35;;;3.90;99.90;;;;;;5072388;28;20240;-74
2023/11/24 03:09:24;;;;;;;3.22;3.03;;;3.90;99.90;;;;;;5064567;28;20198;-83
2023/11/24 03:11:52;;;;;;;3.63;3.42;;;4.00;99.90;;;;;;5067229;28;20221;-83
2023/11/24 03:14:22;;;;;;;3.42;3.22;;;3.90;99.90;;;;;;5069240;28;20264;-81
2023/11/24 03:16:49;;;;;;;3.22;3.03;;;3.90;99.90;;;;;;5073465;28;20222;-84
2023/11/24 03:19:16;;;;;;;3.90;3.60;;;3.90;99.90;;;;;;5068965;28;20727;-82
2023/11/24 03:21:44;;;;;;;4.00;3.70;;;3.90;99.90;;;;;;5067299;28;20703;-83
2023/11/24 03:24:11;;;;;;;3.70;3.47;;;3.90;99.90;;;;;;5066829;28;20230;-81
2023/11/24 03:26:38;;;;;;;3.67;3.38;;;3.90;99.90;;;;;;5066094;28;20218;-82
2023/11/24 03:29:05;;;;;;;3.53;3.33;;;3.90;99.90;;;;;;5073144;28;20194;-79
2023/11/24 03:31:34;;;;;;;3.45;3.25;;;3.90;99.90;;;;;;5070392;28;20226;-85
2023/11/24 03:34:01;;;;;;;3.40;3.20;;;3.90;99.90;;;;;;5076415;28;20279;-79
2023/11/24 03:36:28;;;;;;;3.15;2.95;;;3.80;99.90;;;;;;5073096;28;20292;-80
2023/11/24 03:38:55;;;;;;;3.53;3.33;;;3.80;99.90;;;;;;5070627;28;20199;-81
2023/11/24 03:41:22;;;;;;;3.70;3.50;;;3.80;99.90;;;;;;5073221;28;20213;-83
2023/11/24 03:43:49;;;;;;;3.80;3.50;;;3.80;99.90;;;;;;5070679;28;20255;-82
2023/11/24 03:46:16;;;;;;;3.22;3.03;;;3.70;99.90;;;;;;5068224;28;20214;-78
2023/11/24 03:48:44;;;;;;;3.70;3.50;;;3.70;99.90;;;;;;5072328;28;20259;-78
2023/11/24 03:51:11;;;;;;;3.53;3.33;;;3.60;99.90;;;;;;5072571;28;20248;-79
2023/11/24 03:53:38;;;;;;;3.70;3.50;;;3.60;99.90;;;;;;5070998;28;20215;-86
2023/11/24 03:56:06;;;;;;;3.17;2.97;;;3.60;99.90;;;;;;5072092;28;20218;-79
2023/11/24 03:58:33;;;;;;;3.50;3.30;;;3.60;99.90;;;;;;5073942;28;20798;-79
2023/11/24 04:01:01;;;;;;;3.40;3.20;;;3.60;99.90;;;;;;5069740;28;20228;-82
2023/11/24 04:03:28;;;;;;;3.33;3.13;;;3.60;99.90;;;;;;5073164;28;20222;-86
2023/11/24 04:05:57;;;;;;;3.58;3.28;;;3.60;99.90;;;;;;5075594;28;20241;-80
2023/11/24 04:08:24;;;;;;;4.00;3.70;;;3.60;99.90;;;;;;5073985;28;20263;-86
2023/11/24 04:10:51;;;;;;;3.38;3.17;;;3.60;99.90;;;;;;5077563;28;21086;-79
2023/11/24 04:13:18;;;;;;;3.60;3.40;;;3.70;99.90;;;;;;5074786;28;20202;-79
2023/11/24 04:15:45;;;;;;;3.67;3.47;;;3.60;99.90;;;;;;5074300;28;20267;-86
2023/11/24 04:18:12;;;;;;;3.22;3.03;;;3.60;99.90;;;;;;5072928;28;20604;-80
2023/11/24 04:20:39;;;;;;;3.58;3.28;;;3.70;99.90;;;;;;5072032;28;20954;-87
2023/11/24 04:23:10;;;;;;;3.47;3.28;;;3.60;99.90;;;;;;5071037;28;20252;-81
2023/11/24 04:25:38;;;;;;;3.33;3.13;;;3.60;99.90;;;;;;5074465;28;20226;-81
2023/11/24 04:28:05;;;;;;;3.78;3.58;;;3.60;99.90;;;;;;5068161;28;20215;-79
2023/11/24 04:30:32;;;;;;;3.60;3.40;;;3.50;99.90;;;;;;5071231;28;20226;-81
2023/11/24 04:32:59;;;;;;;3.60;3.40;;;3.50;99.90;;;;;;5074320;28;20203;-78
2023/11/24 04:35:27;;;;;;;3.60;3.30;;;3.40;99.90;;;;;;5073775;28;20218;-84
2023/11/24 04:37:54;;;;;;;3.25;3.05;;;3.30;99.90;;;;;;5067308;28;20212;-84
2023/11/24 04:40:22;;;;;;;3.95;3.65;;;3.30;99.90;;;;;;5068289;28;20221;-80
2023/11/24 04:42:51;;;;;;;3.58;3.38;;;3.30;99.90;;;;;;5070112;28;20198;-82
2023/11/24 04:45:18;;;;;;;3.65;3.45;;;3.20;99.90;;;;;;5070972;28;20273;-81
2023/11/24 04:47:45;;;;;;;3.40;3.20;;;3.20;99.90;;;;;;5072234;28;20207;-80
2023/11/24 04:50:12;;;;;;;3.97;3.67;;;3.20;99.90;;;;;;5071175;28;20214;-85
2023/11/24 04:52:39;;;;;;;3.35;3.15;;;3.20;99.90;;;;;;5070867;28;20246;-81
2023/11/24 04:55:07;;;;;;;3.97;3.55;;;3.20;99.90;;;;;;5071444;28;20222;-80
2023/11/24 04:57:35;;;;;;;3.55;3.35;;;3.30;99.90;;;;;;5071911;28;20199;-82
2023/11/24 05:00:06;;;;;;;3.40;3.20;;;3.40;99.90;;;;;;5071097;28;20214;-80
2023/11/24 05:02:33;;;;;;;3.60;3.40;;;3.40;99.90;;;;;;5068168;28;20205;-82
2023/11/24 05:05:00;;;;;;;3.60;3.40;;;3.50;99.90;;;;;;5070617;28;20221;-89
2023/11/24 05:07:27;;;;;;;3.10;2.90;;;3.50;99.90;;;;;;5072511;28;20230;-81
2023/11/24 05:09:54;;;;;;;3.30;3.10;;;3.50;99.90;;;;;;5069200;28;20222;-84
2023/11/24 05:12:21;;;;;;;3.50;3.30;;;3.40;99.90;;;;;;5072422;28;20203;-84
2023/11/24 05:14:51;;;;;;;3.78;3.58;;;3.40;99.90;;;;;;5072570;28;20258;-87
2023/11/24 05:17:18;;;;;;;3.20;3.00;;;3.40;99.90;;;;;;5071347;28;20247;-80
2023/11/24 05:19:45;;;;;;;3.70;3.50;;;3.40;99.90;;;;;;5074253;28;20198;-82
2023/11/24 05:22:12;;;;;;;4.53;4.22;;;3.30;99.90;;;;;;5075255;28;20251;-78
2023/11/24 05:24:39;;;;;;;4.70;4.30;;;3.30;99.90;;;;;;5070505;28;20229;-82
2023/11/24 05:27:07;;;;;;;4.55;4.15;;;3.30;99.90;;;;;;5072239;28;20218;-83
2023/11/24 05:29:34;;;;;;;3.65;3.35;;;3.20;99.90;;;;;;5068139;28;20618;-80
2023/11/24 05:32:03;;;;;;;3.50;3.30;;;3.20;99.90;;;;;;5065924;28;20248;-81
2023/11/24 05:34:30;;;;;;;4.43;4.13;;;3.30;99.90;;;;;;5068341;28;20218;-86
2023/11/24 05:37:03;;;;;;;3.88;3.58;;;3.30;99.90;;;;;;5070721;28;20199;-84
2023/11/24 05:39:30;;;;;;;3.97;3.78;;;3.20;99.90;;;;;;5069200;28;20274;-84
2023/11/24 05:41:57;;;;;;;3.88;3.58;;;3.20;99.90;;;;;;5070864;28;20688;-84
2023/11/24 05:44:26;;;;;;;3.88;3.67;;;3.20;99.90;;;;;;5068919;28;20255;-84
2023/11/24 05:46:53;;;;;;;3.60;3.40;;;3.20;99.90;;;;;;5067555;28;20219;-83
2023/11/24 05:49:21;;;;;;;3.83;3.60;;;3.20;99.90;;;;;;5068315;28;20207;-86
2023/11/24 05:51:48;;;;;;;3.33;3.13;;;3.20;99.90;;;;;;5068568;28;20276;-78
2023/11/24 05:54:15;;;;;;;3.05;2.85;;;3.20;99.90;;;;;;5069668;28;20319;-83
2023/11/24 05:56:42;;;;;;;3.97;3.78;;;3.20;99.90;;;;;;5069265;28;20222;-83
2023/11/24 05:59:09;;;;;;;3.90;3.67;;;3.20;99.90;;;;;;5070299;28;20198;-81
2023/11/24 06:01:36;;;;;;;4.05;3.80;;;3.20;99.90;;;;;;5070023;28;20267;-86
2023/11/24 06:04:03;;;;;;;4.20;3.90;;;3.10;99.90;;;;;;5071649;28;20252;-83
2023/11/24 06:06:32;;;;;;;4.97;4.47;;;3.10;99.90;;;;;;5067824;28;20214;-82
2023/11/24 06:08:59;;;;;;;4.90;4.50;;;3.10;99.90;;;;;;5069598;28;20676;-82
2023/11/24 06:11:27;;;;;;;4.82;4.43;;;3.00;99.90;;;;;;5068758;28;20286;-81
2023/11/24 06:13:54;;;;;;;5.22;4.72;;;3.10;99.90;;;;;;5073192;28;20273;-86
2023/11/24 06:16:21;;;;;;;4.30;4.00;;;3.10;99.90;;;;;;5073218;28;20222;-84
2023/11/24 06:18:48;;;;;;;4.38;4.07;;;3.10;99.90;;;;;;5067685;28;20257;-81
2023/11/24 06:21:16;;;;;;;4.28;3.97;;;3.20;99.90;;;;;;5056475;28;20276;-78
2023/11/24 06:23:45;;;;;;;4.18;3.88;;;3.20;99.90;;;;;;5060770;28;20253;-79
2023/11/24 06:26:12;;;;;;;3.97;3.67;;;3.30;99.90;;;;;;5060397;28;20862;-86
2023/11/24 06:28:39;;;;;;;3.90;3.70;;;3.30;99.90;;;;;;5063274;28;20291;-81
2023/11/24 06:31:07;;;;;;;4.10;3.80;;;3.30;99.90;;;;;;5058163;28;20233;-78
2023/11/24 06:33:34;;;;;;;3.65;3.35;;;3.40;99.90;;;;;;5060069;28;20226;-82
2023/11/24 06:36:01;;;;;;;3.70;3.50;;;3.40;99.90;;;;;;5057232;28;20218;-75
2023/11/24 06:38:28;;;;;;;4.07;3.78;;;3.40;99.90;;;;;;5058585;28;20198;-78
2023/11/24 06:40:56;;;;;;;3.92;3.72;;;3.40;99.90;;;;;;5053951;28;20225;-77
2023/11/24 06:43:23;;;;;;;4.30;3.95;;;3.40;99.90;;;;;;5063234;28;20275;-83
2023/11/24 06:45:50;;;;;;;4.38;4.07;;;3.30;99.90;;;;;;5066913;28;20219;-82
2023/11/24 06:48:17;;;;;;;4.60;4.20;;;3.20;99.90;;;;;;5069545;28;20272;-84
2023/11/24 06:50:44;;;;;;;4.15;3.85;;;3.20;99.90;;;;;;5064046;28;20271;-79
2023/11/24 06:53:11;;;;;;;4.32;4.03;;;3.20;99.90;;;;;;5068891;28;20259;-82
2023/11/24 06:55:38;;;;;;;3.92;3.63;;;3.30;99.90;;;;;;5067503;28;20249;-81
2023/11/24 06:58:07;;;;;;;4.20;3.95;;;3.30;99.90;;;;;;5066852;28;20194;-81
2023/11/24 07:00:36;;;;;;;3.83;3.58;;;3.30;99.90;;;;;;5069050;28;20218;-78
2023/11/24 07:03:03;;;;;;;4.75;4.22;;;3.40;99.90;;;;;;5068975;28;20274;-85
2023/11/24 07:05:30;;;;;;;4.10;3.80;;;3.40;99.90;;;;;;5072134;28;20217;-86
2023/11/24 07:07:57;;;;;;;4.00;3.70;;;3.30;99.90;;;;;;5070116;28;20292;-80
2023/11/24 07:10:26;;;;;;;4.10;3.80;;;3.30;99.90;;;;;;5068859;28;20222;-76
2023/11/24 07:12:53;;;;;;;3.80;3.60;;;3.40;99.90;;;;;;5070816;28;20248;-86
2023/11/24 07:15:21;;;;;;;4.20;3.90;;;3.40;99.90;;;;;;5074093;28;20217;-87
2023/11/24 07:17:48;;;;;;;3.97;3.67;;;3.40;99.90;;;;;;5075322;28;20208;-80
2023/11/24 07:20:16;;;;;;;4.20;3.90;;;3.40;99.90;;;;;;5074253;28;20287;-81
2023/11/24 07:22:44;;;;;;;4.40;4.10;;;3.40;99.90;;;;;;5075519;28;20202;-82
2023/11/24 07:25:13;;;;;;;4.47;4.18;;;3.40;99.90;;;;;;5073378;28;20229;-81
2023/11/24 07:27:41;;;;;;;4.10;3.80;;;3.40;99.90;;;;;;5074405;28;20210;-79
2023/11/24 07:30:10;;;;;;;4.07;3.78;;;3.40;99.90;;;;;;5074164;28;20589;-79
2023/11/24 07:32:38;;;;;;;3.50;3.30;;;3.30;99.90;;;;;;5072032;28;20208;-80
2023/11/24 07:35:06;;;;;;;3.85;3.55;;;3.40;99.90;;;;;;5071839;28;20291;-82
2023/11/24 07:37:33;;;;;;;4.55;4.25;;;3.40;99.90;;;;;;5074324;28;20204;-78
2023/11/24 07:40:06;;;;;;;3.97;3.67;;;3.40;99.90;;;;;;5075246;28;20225;-82
2023/11/24 07:42:33;;;;;;;4.22;3.92;;;3.30;99.90;;;;;;5074902;28;20244;-80
2023/11/24 07:45:00;;;;;;;4.43;4.13;;;3.30;99.90;;;;;;5071949;28;20230;-84
2023/11/24 07:47:27;;;;;;;4.85;4.45;;;3.30;99.90;;;;;;5072489;28;20730;-80
2023/11/24 07:49:56;;;;;;;4.70;4.40;;;3.30;99.90;;;;;;5069731;28;20276;-80
2023/11/24 07:52:26;;;;;;;4.60;4.30;;;3.30;99.90;;;;;;5070628;28;20224;-87
2023/11/24 07:54:53;;;;;;;5.43;5.03;;;3.20;99.90;;;;;;5072163;28;20275;-80
2023/11/24 07:57:20;;;;;;;7.15;6.18;;;3.20;99.90;;;;;;5070557;28;20194;-82
2023/11/24 07:59:47;;;;;;;6.30;5.80;;;3.80;99.90;;;;;;5070125;28;20257;-82
2023/11/24 08:02:14;;;;;;;5.40;4.90;;;4.90;99.90;;;;;;5075553;28;20198;-83
2023/11/24 08:04:42;;;;;;;6.05;5.40;;;6.00;99.90;;;;;;5073034;28;20847;-80
2023/11/24 08:07:10;;;;;;;5.65;5.22;;;7.10;99.90;;;;;;5074524;28;20217;-88
2023/11/24 08:09:37;;;;;;;6.88;5.80;;;8.20;99.90;;;;;;5075780;28;20215;-82
2023/11/24 08:12:08;;;;;;;5.50;4.95;;;9.00;99.90;;;;;;5070940;28;20241;-76
2023/11/24 08:14:35;;;;;;;5.65;5.15;;;9.40;99.90;;;;;;5068847;28;20834;-77
2023/11/24 08:17:02;;;;;;;6.93;5.50;;;9.90;99.90;;;;;;5072060;28;20195;-85
2023/11/24 08:19:29;;;;;;;5.60;5.10;;;10.40;99.90;;;;;;5070322;28;20757;-83
2023/11/24 08:21:58;;;;;;;4.53;4.13;;;10.80;99.90;;;;;;5074159;28;20214;-81
2023/11/24 08:24:26;;;;;;;4.18;3.78;;;11.30;99.90;;;;;;5070905;28;20248;-86
2023/11/24 08:26:53;;;;;;;4.43;4.00;;;11.60;99.90;;;;;;5071929;28;20697;-80
2023/11/24 08:29:21;;;;;;;4.53;4.13;;;11.90;99.90;;;;;;5073034;28;20264;-79
2023/11/24 08:31:49;;;;;;;6.68;4.35;;;12.20;99.90;;;;;;5068699;28;20217;-82
2023/11/24 08:34:17;;;;;;;4.43;4.03;;;12.60;99.90;;;;;;5062313;28;20230;-82
2023/11/24 08:36:45;;;;;;;7.18;5.60;;;12.80;99.90;;;;;;5062456;28;20225;-81
2023/11/24 08:39:13;;;;;;;6.72;5.68;;;12.60;99.90;;;;;;5059328;28;20745;-84
2023/11/24 08:41:44;;;;;;;7.32;5.57;;;12.40;99.90;;;;;;5062100;28;20221;-86
2023/11/24 08:44:12;;;;;;;7.35;5.53;;;12.80;99.90;;;;;;5060926;28;20672;-81
2023/11/24 08:46:39;;;;;;;6.15;5.55;;;13.00;99.90;;;;;;5059101;28;20801;-82
2023/11/24 08:49:08;;;;;;;5.35;4.88;;;12.70;99.90;;;;;;5062919;28;20244;-84
2023/11/24 08:51:35;;;;;;;5.80;5.20;;;12.80;99.90;;;;;;5062236;28;20207;-81
2023/11/24 08:54:03;;;;;;;5.38;4.78;;;13.00;99.90;;;;;;5060475;28;20306;-75
2023/11/24 08:56:30;;;;;;;5.40;4.90;;;13.30;99.90;;;;;;5066800;28;20225;-81
2023/11/24 08:59:03;;;;;;;5.50;5.00;;;13.60;99.90;;;;;;5069716;28;20207;-80
2023/11/24 09:01:30;;;;;;;5.50;5.00;;;13.60;99.90;;;;;;5065705;28;20631;-80
2023/11/24 09:03:57;;;;;;;6.07;5.47;;;14.20;99.90;;;;;;5062358;28;20222;-79
2023/11/24 09:06:27;;;;;;;5.50;4.95;;;15.50;99.90;;;;;;5059304;28;20218;-78
2023/11/24 09:08:56;;;;;;;5.60;4.72;;;17.10;99.90;;;;;;5057695;28;20723;-74
2023/11/24 09:11:23;;;;;;;5.60;5.05;;;18.80;99.90;;;;;;5057700;28;20284;-78
2023/11/24 09:13:51;;;;;;;5.18;4.47;;;19.70;95.50;;;;;;5057987;28;20228;-78
2023/11/24 09:16:20;;;;;;;4.78;4.32;;;20.90;93.10;;;;;;5056757;28;20254;-77
2023/11/24 09:18:47;;;;;;;4.82;4.43;;;22.30;82.00;;;;;;5057702;28;20267;-80
2023/11/24 09:21:14;;;;;;;5.10;3.80;;;22.70;74.60;;;;;;5062567;28;20768;-79
2023/11/24 09:23:41;;;;;;;6.32;4.28;;;23.30;70.00;;;;;;5060959;28;20218;-77
2023/11/24 09:26:09;;;;;;;5.22;4.60;;;23.10;66.70;;;;;;5057774;28;20244;-77
2023/11/24 09:28:37;;;;;;;5.72;4.50;;;22.60;66.40;;;;;;5060662;28;20213;-78
2023/11/24 09:31:08;;;;;;;5.60;4.32;;;22.50;67.90;;;;;;5059965;28;20261;-80
2023/11/24 09:33:38;;;;;;;5.00;4.50;;;22.30;65.20;;;;;;5061483;28;20258;-81
2023/11/24 09:36:06;;;;;;;6.85;4.82;;;21.90;67.30;;;;;;5060495;28;20794;-80
2023/11/24 09:38:33;;;;;;;6.50;4.95;;;21.30;67.30;;;;;;5058859;28;20191;-81
2023/11/24 09:41:08;;;;;;;5.05;4.55;;;19.60;72.30;;;;;;5059764;28;20218;-80
2023/11/24 09:43:35;;;;;;;5.43;4.78;;;18.20;79.50;;;;;;5064230;28;20620;-82
2023/11/24 09:46:02;;;;;;;5.00;4.50;;;17.30;84.80;;;;;;5063347;28;20249;-77
2023/11/24 09:48:33;;;;;;;4.47;3.85;;;16.60;87.70;;;;;;5065523;28;20214;-83
2023/11/24 09:51:05;;;;;;;7.40;4.30;;;15.70;91.00;;;;;;5065139;28;20218;-83
2023/11/24 09:53:34;;;;;;;6.72;4.90;;;15.40;93.30;;;;;;5060162;28;20222;-78
2023/11/24 09:56:02;;;;;;;4.78;4.25;;;15.30;94.70;;;;;;5064308;28;20210;-87
2023/11/24 09:58:29;;;;;;;5.35;4.65;;;15.50;95.20;;;;;;5064093;28;20206;-81
2023/11/24 10:01:02;;;;;;;5.40;4.50;;;15.60;95.50;;;;;;5062652;28;20291;-81
2023/11/24 10:03:39;;;;;;;6.85;5.05;;;15.70;95.00;;;;;;5058143;28;20867;-82
2023/11/24 10:06:09;;;;;;;5.00;4.50;;;15.80;94.80;;;;;;5056253;28;20238;-79
2023/11/24 10:08:37;;;;;;;6.53;4.50;;;15.60;94.20;;;;;;5061086;28;20253;-79
2023/11/24 10:11:12;;;;;;;4.68;3.63;;;15.00;94.70;;;;;;5060171;28;20222;-80
2023/11/24 10:13:40;;;;;;;4.95;4.50;;;14.80;95.10;;;;;;5057984;28;20299;-77
2023/11/24 10:16:07;;;;;;;4.20;3.80;;;14.90;95.90;;;;;;5060017;28;20230;-76
2023/11/24 10:18:34;;;;;;;6.05;3.95;;;15.20;96.10;;;;;;5058687;28;20232;-83
2023/11/24 10:21:02;;;;;;;4.60;4.20;;;15.40;96.00;;;;;;5064366;28;20267;-76
2023/11/24 10:23:31;;;;;;;5.57;4.50;;;15.10;95.50;;;;;;5064064;28;20213;-83
2023/11/24 10:25:58;;;;;;;5.97;4.65;;;14.50;96.70;;;;;;5057139;28;20265;-78
2023/11/24 10:28:25;;;;;;;4.60;4.20;;;13.80;98.10;;;;;;5060572;28;20199;-79
2023/11/24 10:30:55;;;;;;;4.43;4.03;;;13.90;99.00;;;;;;5056799;28;20210;-76
2023/11/24 10:33:24;;;;;;;6.32;4.75;;;14.10;99.00;;;;;;5056369;28;20293;-80
2023/11/24 10:35:53;;;;;;;4.70;4.30;;;13.80;98.40;;;;;;5055618;28;20276;-78
2023/11/24 10:38:21;;;;;;;4.75;4.25;;;13.30;99.90;;;;;;5061642;28;20332;-75
2023/11/24 10:40:50;;;;;;;5.13;4.38;;;13.30;99.90;;;;;;5058504;28;20222;-86
2023/11/24 10:43:20;;;;;;;4.97;4.00;;;13.50;99.90;;;;;;5057062;28;21630;-77
2023/11/24 10:45:51;;;;;;;4.63;4.20;;;14.00;99.90;;;;;;5060764;28;20324;-81
2023/11/24 10:48:21;;;;;;;5.50;4.72;;;14.50;99.90;;;;;;5060324;28;20206;-80
2023/11/24 10:50:57;;;;;;;6.53;4.60;;;14.80;99.20;;;;;;5057443;28;20665;-79
2023/11/24 10:53:27;;;;;;;4.88;4.38;;;14.70;99.20;;;;;;5059920;28;20292;-81
2023/11/24 10:55:59;;;;;;;11.32;4.97;;;14.70;98.60;;;;;;5058209;28;20273;-79
2023/11/24 10:58:27;;;;;;;4.70;4.22;;;14.40;98.20;;;;;;5059192;28;20206;-82
2023/11/24 11:00:54;;;;;;;4.32;3.92;;;14.40;98.60;;;;;;5058595;28;20272;-79
2023/11/24 11:03:22;;;;;;;4.47;4.07;;;14.60;98.60;;;;;;5059453;28;20205;-77
2023/11/24 11:06:04;;;;;;;4.57;4.18;;;14.60;97.70;;;;;;5060394;28;20273;-80
2023/11/24 11:08:35;;;;;;;4.40;4.00;;;14.40;97.80;;;;;;5058657;28;20237;-77
2023/11/24 11:11:34;;;;;;;4.72;4.32;;;14.00;98.90;;;;;;5057089;28;20229;-80
2023/11/24 11:14:02;;;;;;;6.82;4.07;;;14.00;98.90;;;;;;5059144;28;20225;-81
2023/11/24 11:16:31;;;;;;;4.60;3.75;;;13.60;98.80;;;;;;5057267;28;20225;-80
2023/11/24 11:19:02;;;;;;;4.50;3.80;;;13.50;99.10;;;;;;5055485;28;20232;-81
2023/11/24 11:21:39;;;;;;;6.22;3.70;;;13.40;99.00;;;;;;5059747;28;20229;-79
2023/11/24 11:24:08;;;;;;;3.88;3.47;;;13.30;99.10;;;;;;5057744;28;20316;-78
2023/11/24 11:26:48;;;;;;;6.28;3.95;;;13.30;99.00;;;;;;5057929;28;20224;-87
2023/11/24 11:29:16;;;;;;;3.88;3.45;;;13.00;98.80;;;;;;5058940;28;20927;-86
2023/11/24 11:31:46;;;;;;;4.13;3.72;;;13.00;99.70;;;;;;5058662;28;20348;-80
2023/11/24 11:34:16;;;;;;;4.68;4.28;;;13.00;99.10;;;;;;5060133;28;20933;-77
2023/11/24 11:37:05;;;;;;;4.57;4.13;;;12.90;99.90;;;;;;5061944;28;20229;-76
2023/11/24 11:39:36;;;;;;;4.30;3.90;;;12.70;99.70;;;;;;5060173;28;20199;-77
2023/11/24 11:42:09;;;;;;;4.82;4.13;;;12.70;99.90;;;;;;5057888;28;20279;-83
2023/11/24 11:44:36;;;;;;;6.03;4.75;;;12.70;99.90;;;;;;5062550;28;20218;-84
2023/11/24 11:47:15;;;;;;;7.10;4.93;;;12.40;99.90;;;;;;5057912;28;20245;-76
2023/11/24 11:49:43;;;;;;;5.55;4.65;;;12.40;99.90;;;;;;5060670;28;20217;-77
2023/11/24 11:52:12;;;;;;;6.20;5.15;;;12.70;99.90;;;;;;5058418;28;20202;-78
2023/11/24 11:54:40;;;;;;;6.72;5.70;;;12.70;99.90;;;;;;5065419;28;20218;-80
2023/11/24 11:57:10;;;;;;;6.10;5.47;;;12.30;99.90;;;;;;5068711;28;20238;-77
2023/11/24 11:59:38;;;;;;;7.43;4.90;;;12.20;99.90;;;;;;5060982;28;20280;-77
2023/11/24 12:02:06;;;;;;;9.45;5.28;;;12.10;99.90;;;;;;5061719;28;20313;-76
2023/11/24 12:04:35;;;;;;;6.40;5.78;;;12.10;99.90;;;;;;5062596;28;20704;-80
2023/11/24 12:07:07;;;;;;;6.90;5.60;;;12.40;99.90;;;;;;5059537;28;20771;-77
2023/11/24 12:09:34;;;;;;;6.53;5.82;;;12.50;99.90;;;;;;5061606;28;20206;-76
2023/11/24 12:12:02;;;;;;;6.68;5.50;;;12.70;99.90;;;;;;5062019;28;20268;-78
2023/11/24 12:14:31;;;;;;;6.07;5.47;;;12.70;99.90;;;;;;5062230;28;20299;-81
2023/11/24 12:16:58;;;;;;;7.40;4.68;;;12.90;99.90;;;;;;5056398;28;20211;-78
2023/11/24 12:19:29;;;;;;;5.30;4.70;;;13.10;99.90;;;;;;5061275;28;20210;-78
2023/11/24 12:21:59;;;;;;;5.47;4.55;;;13.00;99.90;;;;;;5061016;28;20229;-77
2023/11/24 12:24:27;;;;;;;5.00;4.55;;;13.00;99.90;;;;;;5062257;28;20317;-79
2023/11/24 12:26:56;;;;;;;4.90;4.40;;;13.00;99.90;;;;;;5064662;28;20232;-82
2023/11/24 12:29:26;;;;;;;5.10;4.60;;;13.00;99.90;;;;;;5063811;28;20294;-77
2023/11/24 12:31:55;;;;;;;4.25;3.85;;;13.10;99.90;;;;;;5062117;28;20304;-80
2023/11/24 12:34:23;;;;;;;4.15;3.75;;;13.40;99.90;;;;;;5063690;28;20223;-76
2023/11/24 12:36:53;;;;;;;4.30;3.90;;;13.80;99.90;;;;;;5060490;28;20221;-82
2023/11/24 12:39:24;;;;;;;4.10;3.75;;;14.00;99.90;;;;;;5062850;28;20190;-82
2023/11/24 12:41:51;;;;;;;4.18;3.78;;;13.90;99.90;;;;;;5060975;28;20210;-82
2023/11/24 12:44:19;;;;;;;4.10;3.70;;;13.70;99.90;;;;;;5062533;28;20234;-82
2023/11/24 12:46:46;;;;;;;4.82;4.35;;;13.50;99.90;;;;;;5062414;28;20797;-83
2023/11/24 12:49:14;;;;;;;7.25;3.60;;;13.60;99.90;;;;;;5064211;28;20221;-79
2023/11/24 12:51:46;;;;;;;3.85;3.55;;;13.70;99.90;;;;;;5066715;28;20229;-83
2023/11/24 12:54:13;;;;;;;4.25;3.85;;;13.90;99.90;;;;;;5065951;28;20225;-78
2023/11/24 12:56:40;;;;;;;3.55;3.25;;;13.90;99.90;;;;;;5064964;28;20252;-79
2023/11/24 12:59:10;;;;;;;4.00;3.60;;;13.90;99.70;;;;;;5063984;28;20475;-81